Time;durP1;ratioP1;P1;durP2;ratioP2;P2;SDS_P1;SDS_P2;PMS_P1;PMS_P2;Temp;Humidity;BMP_temperature;BMP_pressure;BME280_temperature;BME280_humidity;BME280_pressure;Samples;Min_cycle;Max_cycle;Signal;HPM_P1;HPM_P2
2024/04/15 00:00:33;;;;;;;5.50;3.58;;;;;;;10.18;88.72;96712.66;7395997;19;20002;-59
2024/04/15 00:02:58;;;;;;;6.90;3.33;;;;;;;10.26;88.31;96726.31;7393322;19;20022;-56
2024/04/15 00:05:24;;;;;;;4.20;3.75;;;;;;;10.10;89.12;96723.38;7394886;19;20002;-56
2024/04/15 00:07:50;;;;;;;5.20;3.53;;;;;;;10.09;89.55;96726.91;7395756;19;20010;-54
2024/04/15 00:10:16;;;;;;;4.97;3.55;;;;;;;10.23;87.83;96716.81;7395999;19;20007;-59
2024/04/15 00:12:42;;;;;;;5.70;3.75;;;;;;;10.27;86.73;96711.50;7396108;19;20406;-54
2024/04/15 00:15:07;;;;;;;5.93;3.65;;;;;;;10.12;88.20;96718.97;7394751;19;20482;-52
2024/04/15 00:17:33;;;;;;;5.60;3.30;;;;;;;10.02;88.82;96710.53;7395844;19;20002;-60
2024/04/15 00:19:58;;;;;;;6.97;3.53;;;;;;;9.91;89.58;96710.91;7395799;19;20323;-58
2024/04/15 00:22:24;;;;;;;6.93;3.80;;;;;;;9.90;89.48;96710.97;7395715;19;20469;-56
2024/04/15 00:24:49;;;;;;;4.65;3.33;;;;;;;9.83;89.81;96711.16;7395686;19;20349;-59
2024/04/15 00:27:15;;;;;;;4.65;3.40;;;;;;;9.84;89.75;96712.88;7395221;19;20366;-61
2024/04/15 00:29:40;;;;;;;5.30;3.45;;;;;;;9.83;89.74;96715.53;7395410;19;19995;-54
2024/04/15 00:32:06;;;;;;;6.20;3.75;;;;;;;9.82;89.98;96709.44;7395473;19;20550;-54
2024/04/15 00:34:32;;;;;;;4.97;3.70;;;;;;;9.85;90.92;96711.94;7394647;19;20447;-54
2024/04/15 00:36:58;;;;;;;4.93;3.15;;;;;;;9.74;90.52;96706.22;7395333;19;19999;-52
2024/04/15 00:39:27;;;;;;;7.68;4.32;;;;;;;9.65;91.92;96704.75;7395265;19;20390;-57
2024/04/15 00:41:52;;;;;;;6.20;3.80;;;;;;;9.67;91.55;96704.72;7394804;19;19995;-59
2024/04/15 00:44:18;;;;;;;7.07;3.38;;;;;;;9.73;90.46;96709.75;7395088;19;20023;-55
2024/04/15 00:46:44;;;;;;;6.18;3.70;;;;;;;9.59;91.76;96707.56;7393254;19;20349;-57
2024/04/15 00:49:11;;;;;;;8.85;3.90;;;;;;;9.61;91.40;96703.16;7395032;19;20015;-56
2024/04/15 00:51:39;;;;;;;4.80;3.70;;;;;;;9.51;92.45;96704.34;7394606;19;20002;-60
2024/04/15 00:54:06;;;;;;;6.70;3.45;;;;;;;9.42;93.93;96711.56;7394497;19;20003;-58
2024/04/15 00:56:32;;;;;;;4.82;3.72;;;;;;;9.47;93.31;96712.28;7392432;19;20010;-56
2024/04/15 00:58:58;;;;;;;5.82;3.40;;;;;;;9.35;93.42;96705.69;7394801;19;20002;-61
2024/04/15 01:01:25;;;;;;;5.18;3.95;;;;;;;9.33;93.02;96697.03;7394308;19;20010;-56
2024/04/15 01:03:51;;;;;;;4.50;3.42;;;;;;;9.54;91.20;96699.88;7393818;19;20031;-54
2024/04/15 01:06:17;;;;;;;6.63;3.90;;;;;;;9.48;91.71;96697.44;7394505;19;20009;-55
2024/04/15 01:08:43;;;;;;;4.47;3.75;;;;;;;9.17;93.71;96696.63;7394502;19;20383;-54
2024/04/15 01:11:08;;;;;;;4.07;3.67;;;;;;;9.16;94.38;96700.16;7393985;19;20002;-54
2024/04/15 01:13:34;;;;;;;4.30;3.90;;;;;;;9.22;94.00;96696.50;7395165;19;20021;-57
2024/04/15 01:16:00;;;;;;;9.27;3.90;;;;;;;9.16;93.71;96686.25;7399262;19;19995;-55
2024/04/15 01:18:27;;;;;;;6.07;3.95;;;;;;;9.04;94.62;96688.34;7401510;19;20462;-57
2024/04/15 01:20:55;;;;;;;5.55;3.45;;;;;;;9.10;93.97;96685.50;7401653;19;20032;-61
2024/04/15 01:23:27;;;;;;;7.55;4.03;;;;;;;9.16;94.72;96683.63;7401174;19;19999;-61
2024/04/15 01:25:53;;;;;;;5.03;3.83;;;;;;;8.99;95.83;96677.16;7401681;19;20005;-57
2024/04/15 01:28:20;;;;;;;8.15;3.97;;;;;;;8.94;96.39;96681.69;7401164;19;20356;-54
2024/04/15 01:30:48;;;;;;;5.00;4.50;;;;;;;8.88;96.11;96679.25;7401068;19;20031;-56
2024/04/15 01:33:15;;;;;;;5.93;3.72;;;;;;;8.85;96.58;96678.41;7400851;19;20485;-58
2024/04/15 01:35:40;;;;;;;5.88;3.92;;;;;;;8.84;97.88;96678.47;7399532;19;20353;-58
2024/04/15 01:38:06;;;;;;;8.35;3.75;;;;;;;8.88;97.57;96679.25;7401170;19;19995;-54
2024/04/15 01:40:31;;;;;;;3.90;3.45;;;;;;;8.81;97.14;96684.63;7400724;19;20476;-59
2024/04/15 01:42:57;;;;;;;9.82;4.10;;;;;;;8.68;97.50;96675.44;7400953;19;20058;-61
2024/04/15 01:45:23;;;;;;;6.70;3.90;;;;;;;8.59;98.70;96689.59;7400708;19;20391;-55
2024/04/15 01:47:49;;;;;;;7.43;3.90;;;;;;;8.57;100.00;96687.03;7400558;19;19995;-59
2024/04/15 01:50:18;;;;;;;8.77;3.97;;;;;;;8.57;100.00;96684.41;7400365;19;20002;-56
2024/04/15 01:52:44;;;;;;;5.22;4.10;;;;;;;8.38;100.00;96696.22;7400190;19;19995;-57
2024/04/15 01:55:09;;;;;;;10.15;3.95;;;;;;;8.40;99.10;96691.81;7399549;19;20010;-62
2024/04/15 01:57:36;;;;;;;7.95;4.47;;;;;;;8.34;100.00;96698.91;7400084;19;19995;-56
2024/04/15 02:00:05;;;;;;;6.60;3.78;;;;;;;8.34;100.00;96691.06;7400081;19;20389;-56
2024/04/15 02:02:31;;;;;;;5.53;4.00;;;;;;;8.39;100.00;96692.69;7400047;19;20015;-59
2024/04/15 02:04:57;;;;;;;4.95;3.95;;;;;;;8.25;100.00;96688.69;7398481;19;20346;-61
2024/04/15 02:07:22;;;;;;;5.93;4.72;;;;;;;8.35;100.00;96684.13;7399894;19;19994;-55
2024/04/15 02:09:48;;;;;;;5.50;4.30;;;;;;;8.16;100.00;96681.16;7400136;19;20007;-59
2024/04/15 02:12:13;;;;;;;5.80;4.07;;;;;;;8.15;100.00;96679.41;7400042;19;20469;-56
2024/04/15 02:14:39;;;;;;;5.28;4.18;;;;;;;8.26;100.00;96682.63;7399100;19;19990;-61
2024/04/15 02:17:05;;;;;;;8.00;4.55;;;;;;;8.32;100.00;96687.66;7399555;19;20006;-59
2024/04/15 02:19:33;;;;;;;4.75;4.20;;;;;;;8.43;100.00;96683.91;7399419;19;19999;-57
2024/04/15 02:21:59;;;;;;;5.20;3.90;;;;;;;8.35;100.00;96678.91;7399312;19;20001;-56
2024/04/15 02:24:24;;;;;;;4.20;3.80;;;;;;;8.12;100.00;96669.94;7399604;19;20068;-58
2024/04/15 02:26:50;;;;;;;9.57;4.45;;;;;;;7.89;100.00;96665.34;7396816;19;20031;-58
2024/04/15 02:29:15;;;;;;;4.47;3.95;;;;;;;8.07;100.00;96667.44;7399050;19;19995;-54
2024/04/15 02:31:41;;;;;;;6.05;4.60;;;;;;;8.09;100.00;96660.47;7398949;19;20018;-54
2024/04/15 02:34:06;;;;;;;7.38;4.82;;;;;;;8.17;100.00;96657.66;7398915;19;19998;-56
2024/04/15 02:36:32;;;;;;;5.43;3.97;;;;;;;8.13;100.00;96660.38;7396580;19;20417;-57
2024/04/15 02:38:58;;;;;;;10.38;4.72;;;;;;;8.00;100.00;96654.66;7398917;19;20006;-62
2024/04/15 02:41:23;;;;;;;7.80;4.80;;;;;;;8.13;100.00;96649.97;7398656;19;20002;-56
2024/04/15 02:43:49;;;;;;;5.53;4.30;;;;;;;8.09;100.00;96654.38;7398613;19;20006;-52
2024/04/15 02:46:16;;;;;;;10.68;4.68;;;;;;;8.09;100.00;96652.66;7398507;19;19994;-55
2024/04/15 02:48:42;;;;;;;8.38;4.40;;;;;;;8.04;100.00;96653.66;7398944;19;20082;-54
2024/04/15 02:51:08;;;;;;;8.23;4.18;;;;;;;8.03;100.00;96641.50;7398365;19;20009;-56
2024/04/15 02:53:34;;;;;;;7.53;3.92;;;;;;;8.15;100.00;96656.84;7398326;19;20003;-60
2024/04/15 02:56:00;;;;;;;7.00;3.67;;;;;;;8.28;100.00;96659.13;7396796;19;20006;-57
2024/04/15 02:58:25;;;;;;;6.63;4.30;;;;;;;8.29;100.00;96659.09;7398198;19;20022;-57
2024/04/15 03:00:51;;;;;;;8.68;4.40;;;;;;;7.84;100.00;96663.69;7398078;19;20062;-55
2024/04/15 03:03:17;;;;;;;5.95;4.38;;;;;;;7.84;100.00;96660.22;7397923;19;20030;-59
2024/04/15 03:05:46;;;;;;;8.70;4.13;;;;;;;8.03;100.00;96662.34;7395940;19;20011;-55
2024/04/15 03:08:14;;;;;;;4.60;4.10;;;;;;;7.89;100.00;96652.31;7397730;19;20011;-58
2024/04/15 03:10:40;;;;;;;6.57;4.13;;;;;;;7.98;100.00;96659.88;7397747;19;19999;-54
2024/04/15 03:13:06;;;;;;;4.50;4.10;;;;;;;7.93;100.00;96662.63;7398004;19;20357;-58
2024/04/15 03:15:32;;;;;;;5.97;4.05;;;;;;;7.82;100.00;96655.06;7396473;19;20366;-58
2024/04/15 03:17:58;;;;;;;6.47;4.25;;;;;;;7.87;100.00;96661.91;7397783;19;20350;-57
2024/04/15 03:20:27;;;;;;;5.90;4.03;;;;;;;7.96;100.00;96659.94;7397374;19;20035;-57
2024/04/15 03:22:53;;;;;;;4.88;3.88;;;;;;;7.87;100.00;96669.72;7397406;19;20090;-58
2024/04/15 03:25:20;;;;;;;6.40;4.85;;;;;;;7.88;100.00;96669.66;7397152;19;20465;-57
2024/04/15 03:27:49;;;;;;;5.53;4.55;;;;;;;7.80;100.00;96664.66;7397113;19;20002;-60
2024/04/15 03:30:15;;;;;;;6.10;4.60;;;;;;;7.81;100.00;96661.16;7397066;19;19999;-59
2024/04/15 03:32:41;;;;;;;10.43;4.30;;;;;;;7.77;100.00;96667.31;7397383;19;20010;-59
2024/04/15 03:35:12;;;;;;;10.68;4.68;;;;;;;7.70;100.00;96671.84;7396065;19;20339;-60
2024/04/15 03:37:38;;;;;;;8.43;4.55;;;;;;;7.72;100.00;96671.81;7396295;19;20003;-57
2024/04/15 03:40:04;;;;;;;4.82;4.18;;;;;;;7.84;100.00;96668.03;7396815;19;20001;-58
2024/04/15 03:42:30;;;;;;;5.65;3.90;;;;;;;7.55;100.00;96670.47;7397012;19;19998;-61
2024/04/15 03:44:56;;;;;;;4.68;4.28;;;;;;;7.63;100.00;96677.22;7396560;19;20003;-60
2024/04/15 03:47:21;;;;;;;5.10;4.07;;;;;;;7.69;100.00;96683.16;7396526;19;19995;-59
2024/04/15 03:49:47;;;;;;;5.55;4.18;;;;;;;7.75;100.00;96692.56;7396462;19;20083;-55
2024/04/15 03:52:12;;;;;;;7.18;4.20;;;;;;;7.91;100.00;96686.97;7396704;19;20077;-58
2024/04/15 03:54:38;;;;;;;9.20;4.90;;;;;;;7.78;100.00;96697.72;7395902;19;20499;-58
2024/04/15 03:57:04;;;;;;;8.55;4.60;;;;;;;7.71;100.00;96689.16;7396714;19;19999;-56
2024/04/15 03:59:30;;;;;;;9.02;4.22;;;;;;;7.53;100.00;96681.81;7396089;19;20006;-58
2024/04/15 04:01:56;;;;;;;12.10;4.55;;;;;;;7.61;100.00;96686.84;7395944;19;20032;-55
2024/04/15 04:04:22;;;;;;;7.80;4.30;;;;;;;7.81;100.00;96681.13;7395481;19;20007;-59
2024/04/15 04:06:48;;;;;;;6.25;4.60;;;;;;;7.87;100.00;96683.59;7395843;19;20007;-60
2024/04/15 04:09:14;;;;;;;7.05;4.40;;;;;;;7.89;100.00;96681.78;7395826;19;20015;-55
2024/04/15 04:11:39;;;;;;;6.38;4.20;;;;;;;8.33;100.00;96676.34;7396069;19;19995;-59
2024/04/15 04:14:05;;;;;;;16.50;4.38;;;;;;;9.18;99.38;96680.06;7395858;19;20485;-56
2024/04/15 04:16:31;;;;;;;10.48;4.15;;;;;;;10.25;91.75;96677.56;7393948;19;19995;-57
2024/04/15 04:18:56;;;;;;;15.43;4.72;;;;;;;11.40;83.38;96679.53;7395628;19;19994;-58
2024/04/15 04:21:22;;;;;;;10.40;4.20;;;;;;;11.64;79.26;96680.34;7395506;19;19995;-58
2024/04/15 04:23:47;;;;;;;7.07;3.90;;;;;;;12.19;77.26;96683.44;7395341;19;20083;-58
2024/04/15 04:26:13;;;;;;;3.97;3.15;;;;;;;12.44;74.98;96685.00;7395721;19;20003;-57
2024/04/15 04:28:39;;;;;;;8.45;3.80;;;;;;;12.96;73.12;96684.44;7395316;19;20458;-58
2024/04/15 04:31:05;;;;;;;12.55;3.50;;;;;;;13.79;68.53;96692.94;7395180;19;20010;-58
2024/04/15 04:33:32;;;;;;;9.95;3.67;;;;;;;14.61;66.48;96694.13;7395098;19;20017;-56
2024/04/15 04:36:00;;;;;;;9.55;3.38;;;;;;;14.82;64.44;96699.22;7393715;19;20003;-63
2024/04/15 04:38:27;;;;;;;6.82;2.88;;;;;;;14.41;66.08;96697.78;7394910;19;20003;-59
2024/04/15 04:41:00;;;;;;;7.78;3.28;;;;;;;14.41;63.64;96705.66;7394847;19;20086;-61
2024/04/15 04:43:26;;;;;;;10.93;3.05;;;;;;;14.39;65.82;96692.59;7394937;19;20003;-59
2024/04/15 04:45:52;;;;;;;9.48;3.13;;;;;;;15.01;64.56;96696.47;7394812;19;20002;-58
2024/04/15 04:48:18;;;;;;;12.60;3.67;;;;;;;15.38;63.22;96698.03;7394956;19;20009;-56
2024/04/15 04:50:44;;;;;;;21.13;4.25;;;;;;;16.25;59.79;96697.59;7402517;19;20003;-59
2024/04/15 04:53:10;;;;;;;28.60;3.53;;;;;;;16.73;59.93;96702.69;7402417;19;20003;-56
2024/04/15 04:55:37;;;;;;;13.45;3.38;;;;;;;16.87;58.17;96703.66;7401066;19;20014;-59
2024/04/15 04:58:08;;;;;;;16.33;3.70;;;;;;;16.54;60.40;96701.16;7402513;19;20005;-60
2024/04/15 05:00:34;;;;;;;26.95;4.07;;;;;;;16.62;60.88;96702.50;7402047;19;20011;-55
2024/04/15 05:02:59;;;;;;;14.80;3.92;;;;;;;16.78;61.40;96700.63;7402126;19;20036;-55
2024/04/15 05:05:25;;;;;;;12.30;4.47;;;;;;;18.31;55.84;96704.28;7399474;19;20006;-61
2024/04/15 05:07:51;;;;;;;30.83;4.72;;;;;;;18.29;58.05;96689.47;7401761;19;20022;-61
2024/04/15 05:10:17;;;;;;;16.70;3.92;;;;;;;18.06;58.18;96699.75;7401725;19;20032;-59
2024/04/15 05:12:42;;;;;;;18.48;3.92;;;;;;;17.79;58.04;96693.53;7401727;19;20019;-62
2024/04/15 05:15:08;;;;;;;9.27;3.28;;;;;;;19.22;55.28;96707.97;7400531;19;20020;-58
2024/04/15 05:17:34;;;;;;;8.85;3.45;;;;;;;19.53;53.16;96700.47;7401448;19;20027;-58
2024/04/15 05:20:00;;;;;;;28.35;5.25;;;;;;;20.49;52.69;96713.84;7401397;19;19999;-60
2024/04/15 05:22:26;;;;;;;24.05;4.60;;;;;;;21.68;50.62;96708.28;7401304;19;20011;-56
2024/04/15 05:24:56;;;;;;;19.38;3.83;;;;;;;22.50;45.31;96702.53;7401594;19;20013;-58
2024/04/15 05:27:22;;;;;;;10.10;3.20;;;;;;;22.90;43.44;96708.97;7401281;19;20014;-56
2024/04/15 05:29:47;;;;;;;8.93;3.15;;;;;;;25.11;40.39;96709.84;7401050;19;19999;-58
2024/04/15 05:32:13;;;;;;;3.85;2.60;;;;;;;25.24;39.53;96717.56;7401106;19;20076;-59
2024/04/15 05:34:39;;;;;;;8.35;3.40;;;;;;;25.81;39.37;96706.88;7400455;19;19999;-62
2024/04/15 05:37:07;;;;;;;6.45;2.58;;;;;;;27.54;36.19;96707.53;7401213;19;20386;-55
2024/04/15 05:39:32;;;;;;;5.95;2.55;;;;;;;28.40;33.89;96707.44;7400790;19;20014;-59
2024/04/15 05:41:58;;;;;;;3.42;2.67;;;;;;;28.78;33.07;96720.38;7400766;19;19994;-55
2024/04/15 05:44:24;;;;;;;4.40;2.25;;;;;;;28.85;33.39;96716.00;7400617;19;20012;-54
2024/04/15 05:46:51;;;;;;;7.35;2.70;;;;;;;29.17;33.44;96718.81;7400918;19;20007;-54
2024/04/15 05:49:17;;;;;;;4.50;2.55;;;;;;;28.12;35.27;96705.84;7400564;19;20074;-54
2024/04/15 05:51:44;;;;;;;8.65;2.95;;;;;;;26.95;35.75;96709.06;7400758;19;20337;-61
2024/04/15 05:54:09;;;;;;;6.50;2.95;;;;;;;26.48;36.76;96711.06;7400710;19;20311;-56
2024/04/15 05:56:35;;;;;;;13.75;3.67;;;;;;;28.39;32.10;96719.19;7397771;19;20006;-61
2024/04/15 05:59:00;;;;;;;23.48;4.18;;;;;;;26.32;35.86;96717.13;7400124;19;20036;-59
2024/04/15 06:01:26;;;;;;;10.77;3.47;;;;;;;24.34;39.88;96707.16;7399850;19;20066;-58
2024/04/15 06:03:51;;;;;;;11.55;4.00;;;;;;;23.91;41.73;96703.88;7399539;19;20016;-61
2024/04/15 06:06:17;;;;;;;15.45;3.90;;;;;;;23.70;41.30;96691.47;7400111;19;20018;-57
2024/04/15 06:08:43;;;;;;;18.05;4.00;;;;;;;23.40;43.46;96699.41;7399913;19;20005;-56
2024/04/15 06:11:08;;;;;;;10.15;3.55;;;;;;;23.02;43.54;96698.25;7399816;19;19999;-51
2024/04/15 06:13:34;;;;;;;17.77;3.90;;;;;;;23.23;42.95;96700.84;7400092;19;20015;-62
2024/04/15 06:15:59;;;;;;;14.07;3.28;;;;;;;23.84;40.14;96706.28;7397841;19;19990;-55
2024/04/15 06:18:25;;;;;;;13.15;3.30;;;;;;;24.14;38.49;96711.66;7399582;19;20009;-52
2024/04/15 06:20:50;;;;;;;8.32;3.10;;;;;;;25.05;36.40;96709.59;7399970;19;19998;-59
2024/04/15 06:23:16;;;;;;;6.65;3.35;;;;;;;23.50;38.53;96702.09;7399353;19;19994;-54
2024/04/15 06:25:41;;;;;;;9.90;3.10;;;;;;;25.26;36.14;96712.06;7399255;19;19999;-58
2024/04/15 06:28:07;;;;;;;6.35;3.47;;;;;;;25.34;36.42;96714.00;7399699;19;20003;-58
2024/04/15 06:30:33;;;;;;;10.52;3.22;;;;;;;24.33;37.90;96709.00;7399093;19;20342;-53
2024/04/15 06:32:58;;;;;;;10.63;3.05;;;;;;;24.76;37.97;96707.81;7399444;19;19998;-56
2024/04/15 06:35:24;;;;;;;7.55;3.10;;;;;;;25.54;36.46;96697.84;7397946;19;20334;-57
2024/04/15 06:37:49;;;;;;;4.65;3.40;;;;;;;24.91;37.05;96705.56;7399366;19;20094;-58
2024/04/15 06:40:15;;;;;;;8.52;3.40;;;;;;;25.07;36.15;96708.47;7399139;19;20494;-54
2024/04/15 06:42:41;;;;;;;5.85;2.83;;;;;;;25.37;36.58;96703.00;7398740;19;20367;-57
2024/04/15 06:45:06;;;;;;;5.60;3.13;;;;;;;25.72;36.59;96704.13;7398773;19;20012;-53
2024/04/15 06:47:32;;;;;;;4.35;2.80;;;;;;;24.85;36.58;96706.94;7398603;19;19995;-57
2024/04/15 06:49:58;;;;;;;6.30;3.10;;;;;;;24.68;37.88;96704.03;7398524;19;20002;-55
2024/04/15 06:52:24;;;;;;;6.20;2.92;;;;;;;24.59;39.06;96699.56;7398451;19;20009;-55
2024/04/15 06:54:50;;;;;;;5.90;3.17;;;;;;;25.71;37.41;96693.56;7397890;19;20473;-60
2024/04/15 06:57:15;;;;;;;6.10;3.10;;;;;;;25.16;37.60;96708.59;7398228;19;20074;-56
2024/04/15 06:59:41;;;;;;;7.45;3.17;;;;;;;25.86;36.53;96689.34;7398309;19;19999;-57
2024/04/15 07:02:07;;;;;;;5.20;3.00;;;;;;;26.23;35.49;96697.41;7398049;19;20007;-55
2024/04/15 07:04:33;;;;;;;4.15;2.40;;;;;;;25.80;34.61;96686.47;7397179;19;20010;-56
2024/04/15 07:06:58;;;;;;;5.75;2.80;;;;;;;25.67;33.73;96694.88;7397898;19;20062;-53
2024/04/15 07:09:24;;;;;;;5.18;3.08;;;;;;;26.60;34.21;96695.56;7397941;19;20031;-55
2024/04/15 07:11:50;;;;;;;5.90;3.03;;;;;;;26.01;33.90;96693.34;7396795;19;20348;-52
2024/04/15 07:14:15;;;;;;;4.63;2.70;;;;;;;25.02;34.47;96688.50;7397653;19;20006;-59
2024/04/15 07:16:41;;;;;;;8.90;3.25;;;;;;;25.23;36.63;96688.28;7395592;19;20062;-56
2024/04/15 07:19:06;;;;;;;5.15;2.67;;;;;;;24.60;35.64;96690.53;7398024;19;20006;-55
2024/04/15 07:21:32;;;;;;;10.02;3.22;;;;;;;26.04;34.52;96690.38;7397518;19;20337;-56
2024/04/15 07:23:58;;;;;;;7.07;3.80;;;;;;;25.55;34.57;96684.31;7397495;19;20002;-54
2024/04/15 07:26:23;;;;;;;13.05;3.67;;;;;;;26.37;34.40;96688.84;7395884;19;19995;-51
2024/04/15 07:28:52;;;;;;;7.13;3.33;;;;;;;26.82;34.20;96685.34;7397213;19;20007;-54
2024/04/15 07:31:17;;;;;;;6.43;3.42;;;;;;;25.76;35.22;96677.03;7397582;19;20507;-57
2024/04/15 07:33:43;;;;;;;8.32;3.53;;;;;;;26.11;34.35;96683.41;7397145;19;20002;-56
2024/04/15 07:36:08;;;;;;;5.15;3.30;;;;;;;26.51;33.64;96678.56;7395948;19;19998;-57
2024/04/15 07:38:34;;;;;;;7.97;2.95;;;;;;;26.98;34.41;96677.41;7396948;19;20020;-53
2024/04/15 07:41:00;;;;;;;5.45;3.42;;;;;;;26.72;33.58;96670.19;7396928;19;20006;-56
2024/04/15 07:43:26;;;;;;;11.80;3.85;;;;;;;26.21;36.13;96664.56;7396967;19;20087;-61
2024/04/15 07:45:52;;;;;;;7.72;3.67;;;;;;;26.93;33.92;96666.28;7396730;19;20010;-54
2024/04/15 07:48:17;;;;;;;5.70;3.50;;;;;;;27.33;33.52;96679.25;7396606;19;20014;-52
2024/04/15 07:50:43;;;;;;;5.78;3.63;;;;;;;26.21;34.91;96662.72;7396926;19;20010;-55
2024/04/15 07:53:09;;;;;;;6.38;3.10;;;;;;;27.28;34.17;96665.47;7396409;19;20017;-61
2024/04/15 07:55:35;;;;;;;5.82;3.03;;;;;;;27.38;34.25;96663.50;7395372;19;20002;-55
2024/04/15 07:58:00;;;;;;;6.00;3.40;;;;;;;26.34;33.78;96664.22;7396348;19;20001;-57
2024/04/15 08:00:26;;;;;;;5.95;3.50;;;;;;;27.51;32.68;96668.41;7396142;19;20070;-58
2024/04/15 08:02:51;;;;;;;7.75;3.58;;;;;;;27.50;33.46;96661.34;7396485;19;20003;-58
2024/04/15 08:05:17;;;;;;;5.13;2.95;;;;;;;27.11;34.20;96652.81;7394654;19;20483;-54
2024/04/15 08:07:43;;;;;;;7.05;3.33;;;;;;;28.03;31.04;96657.63;7396400;19;20006;-57
2024/04/15 08:10:08;;;;;;;6.22;3.50;;;;;;;26.97;33.36;96659.59;7396276;19;20469;-59
2024/04/15 08:12:34;;;;;;;6.25;3.75;;;;;;;26.85;33.98;96642.91;7396256;19;20366;-54
2024/04/15 08:15:00;;;;;;;4.85;3.05;;;;;;;27.09;33.42;96640.56;7395778;19;20339;-55
2024/04/15 08:17:25;;;;;;;7.55;3.38;;;;;;;26.68;32.21;96651.88;7395785;19;20465;-59
2024/04/15 08:19:52;;;;;;;5.63;3.33;;;;;;;26.28;32.00;96649.56;7395680;19;19998;-57
2024/04/15 08:22:17;;;;;;;4.13;3.08;;;;;;;26.49;34.19;96646.53;7395949;19;20010;-55
2024/04/15 08:24:47;;;;;;;5.10;3.22;;;;;;;27.29;32.65;96641.16;7392972;19;19995;-57
2024/04/15 08:27:13;;;;;;;5.82;2.72;;;;;;;27.80;31.92;96643.00;7393902;19;20070;-57
2024/04/15 08:29:38;;;;;;;6.10;2.90;;;;;;;27.71;32.62;96638.59;7395560;19;20045;-59
2024/04/15 08:32:04;;;;;;;10.20;3.53;;;;;;;26.24;32.86;96634.75;7395819;19;20488;-57
2024/04/15 08:34:30;;;;;;;4.75;3.38;;;;;;;27.35;33.51;96631.59;7395134;19;20497;-53
2024/04/15 08:36:55;;;;;;;5.15;3.13;;;;;;;27.41;32.50;96636.31;7395110;19;20066;-53
2024/04/15 08:39:21;;;;;;;9.07;3.60;;;;;;;26.83;32.53;96623.47;7394980;19;20075;-53
2024/04/15 08:41:57;;;;;;;9.80;3.70;;;;;;;26.72;33.24;96629.94;7394948;19;20005;-56
2024/04/15 08:44:25;;;;;;;4.65;3.10;;;;;;;27.46;32.25;96628.63;7395116;19;19998;-57
2024/04/15 08:46:52;;;;;;;7.13;4.10;;;;;;;27.30;33.19;96623.19;7395252;19;20479;-53
2024/04/15 08:49:18;;;;;;;6.63;3.63;;;;;;;27.14;33.26;96621.31;7394783;19;20410;-51
2024/04/15 08:51:45;;;;;;;6.47;3.25;;;;;;;27.81;33.72;96616.97;7394673;19;20010;-58
2024/04/15 08:54:11;;;;;;;5.32;3.22;;;;;;;27.12;34.80;96618.78;7394648;19;19995;-55
2024/04/15 08:56:41;;;;;;;7.72;3.70;;;;;;;26.47;36.33;96620.91;7393056;19;20006;-57
2024/04/15 08:59:08;;;;;;;3.95;2.95;;;;;;;26.67;33.66;96616.16;7394944;19;20110;-60
2024/04/15 09:01:35;;;;;;;8.18;3.88;;;;;;;25.80;35.03;96616.81;7394516;19;20062;-59
2024/04/15 09:04:01;;;;;;;5.13;2.97;;;;;;;24.90;37.22;96612.94;7393824;19;19995;-57
2024/04/15 09:06:27;;;;;;;8.93;3.85;;;;;;;25.89;36.00;96613.22;7394449;19;20017;-59
2024/04/15 09:08:53;;;;;;;8.75;4.15;;;;;;;25.98;35.21;96608.78;7392829;19;20010;-56
2024/04/15 09:11:19;;;;;;;5.68;3.30;;;;;;;26.79;35.03;96607.84;7394592;19;20013;-59
2024/04/15 09:13:44;;;;;;;5.82;3.08;;;;;;;26.76;34.91;96606.34;7394174;19;20464;-58
2024/04/15 09:16:10;;;;;;;8.45;3.20;;;;;;;25.83;35.83;96601.25;7392477;19;20027;-56
2024/04/15 09:18:35;;;;;;;8.57;3.28;;;;;;;26.73;35.61;96596.75;7394073;19;19999;-56
2024/04/15 09:21:01;;;;;;;10.07;2.80;;;;;;;27.23;33.42;96598.84;7393931;19;19999;-57
2024/04/15 09:23:27;;;;;;;5.65;2.92;;;;;;;27.16;34.70;96601.34;7393881;19;20006;-54
2024/04/15 09:25:52;;;;;;;7.05;2.88;;;;;;;27.40;32.41;96590.84;7393699;19;19999;-56
2024/04/15 09:28:18;;;;;;;4.53;2.63;;;;;;;26.03;34.23;96581.53;7393616;19;20003;-60
2024/04/15 09:30:44;;;;;;;4.60;2.47;;;;;;;26.44;35.95;96567.59;7393573;19;19999;-57
2024/04/15 09:33:12;;;;;;;8.35;2.78;;;;;;;26.96;32.67;96579.25;7394065;19;20010;-56
2024/04/15 09:35:39;;;;;;;5.72;2.78;;;;;;;26.82;32.69;96583.41;7397085;19;20007;-55
2024/04/15 09:38:08;;;;;;;6.90;2.80;;;;;;;27.48;32.94;96575.59;7400920;19;20006;-58
2024/04/15 09:40:36;;;;;;;3.80;2.38;;;;;;;27.54;32.17;96567.88;7400770;19;20007;-58
2024/04/15 09:43:02;;;;;;;9.25;2.50;;;;;;;27.14;30.35;96575.69;7400670;19;20006;-57
2024/04/15 09:45:29;;;;;;;6.85;2.78;;;;;;;27.09;30.45;96573.47;7400673;19;20002;-56
2024/04/15 09:47:56;;;;;;;4.95;2.72;;;;;;;27.11;30.78;96566.09;7400633;19;20003;-61
2024/04/15 09:50:22;;;;;;;6.03;2.45;;;;;;;27.34;31.83;96563.66;7400524;19;20003;-61
2024/04/15 09:52:59;;;;;;;7.28;2.53;;;;;;;27.28;30.91;96567.00;7400321;19;20017;-57
2024/04/15 09:55:36;;;;;;;3.95;2.40;;;;;;;26.91;31.31;96563.63;7399208;19;20006;-57
2024/04/15 09:58:03;;;;;;;4.40;2.17;;;;;;;26.58;30.97;96560.81;7400279;19;20007;-56
2024/04/15 10:00:30;;;;;;;6.45;2.40;;;;;;;27.15;31.72;96553.19;7400073;19;20003;-59
2024/04/15 10:03:08;;;;;;;4.35;2.95;;;;;;;27.10;30.48;96559.03;7400495;19;20003;-57
2024/04/15 10:05:39;;;;;;;3.85;2.35;;;;;;;27.63;31.15;96556.97;7397865;19;20353;-59
2024/04/15 10:08:06;;;;;;;7.78;2.67;;;;;;;27.79;30.34;96566.09;7399914;19;20040;-60
2024/04/15 10:10:33;;;;;;;2.55;2.05;;;;;;;27.18;29.72;96542.97;7399800;19;20014;-55
2024/04/15 10:13:04;;;;;;;3.70;2.40;;;;;;;27.57;30.47;96548.75;7399751;19;20009;-58
2024/04/15 10:15:30;;;;;;;4.30;2.10;;;;;;;27.90;29.33;96538.03;7398528;19;20002;-49
2024/04/15 10:18:00;;;;;;;4.07;2.05;;;;;;;27.19;28.75;96547.34;7399716;19;20493;-54
2024/04/15 10:20:27;;;;;;;;;;;;;;;27.31;29.08;96538.97;7400200;19;20458;-56
2024/04/15 10:23:00;;;;;;;6.20;2.10;;;;;;;27.45;28.13;96534.81;7399642;19;19915;-57
2024/04/15 10:25:27;;;;;;;8.35;2.40;;;;;;;26.86;27.55;96534.63;7399753;19;20122;-55
2024/04/15 10:27:52;;;;;;;3.58;1.88;;;;;;;27.62;27.28;96530.28;7399396;19;20006;-54
2024/04/15 10:30:19;;;;;;;6.90;2.35;;;;;;;27.94;28.31;96517.91;7399172;19;20010;-55
2024/04/15 10:32:45;;;;;;;6.05;2.17;;;;;;;27.67;28.08;96530.66;7399239;19;20485;-55
2024/04/15 10:35:21;;;;;;;5.15;2.05;;;;;;;27.97;27.54;96535.53;7398276;19;20007;-57
2024/04/15 10:37:50;;;;;;;7.90;2.22;;;;;;;27.66;29.30;96515.53;7398982;19;20002;-55
2024/04/15 10:40:20;;;;;;;5.30;2.10;;;;;;;28.09;28.68;96512.69;7398921;19;19999;-60
2024/04/15 10:42:45;;;;;;;6.50;2.28;;;;;;;27.50;30.08;96505.59;7399266;19;20007;-54
2024/04/15 10:45:19;;;;;;;2.95;2.03;;;;;;;28.22;28.68;96497.84;7398713;19;20091;-52
2024/04/15 10:47:48;;;;;;;5.90;1.98;;;;;;;27.35;28.47;96497.34;7397100;19;20115;-56
2024/04/15 10:50:13;;;;;;;6.28;2.00;;;;;;;27.96;27.87;96489.00;7399008;19;20346;-51
2024/04/15 10:52:39;;;;;;;4.20;2.55;;;;;;;27.26;26.24;96504.56;7398457;19;20027;-56
2024/04/15 10:55:05;;;;;;;6.45;1.98;;;;;;;27.63;27.09;96486.28;7397704;19;20009;-55
2024/04/15 10:57:31;;;;;;;2.33;1.77;;;;;;;27.74;29.14;96491.38;7398739;19;20453;-56
2024/04/15 10:59:56;;;;;;;6.32;2.47;;;;;;;27.18;27.91;96489.28;7398197;19;20105;-54
2024/04/15 11:02:22;;;;;;;5.75;2.50;;;;;;;28.13;28.09;96478.22;7398513;19;20013;-58
2024/04/15 11:04:48;;;;;;;5.55;2.30;;;;;;;27.97;28.72;96482.63;7396950;19;20476;-56
2024/04/15 11:07:17;;;;;;;3.45;1.90;;;;;;;28.33;26.98;96467.97;7398049;19;20003;-56
2024/04/15 11:09:42;;;;;;;3.70;2.40;;;;;;;27.71;26.65;96478.28;7397915;19;19998;-54
2024/04/15 11:12:09;;;;;;;5.45;2.20;;;;;;;27.26;28.09;96469.66;7398225;19;20086;-59
2024/04/15 11:14:34;;;;;;;2.67;2.13;;;;;;;28.26;27.21;96458.84;7397690;19;20006;-57
2024/04/15 11:17:00;;;;;;;3.60;2.15;;;;;;;27.14;27.29;96469.16;7397604;19;19995;-57
2024/04/15 11:19:26;;;;;;;2.78;2.15;;;;;;;27.77;27.07;96452.59;7397666;19;20041;-59
2024/04/15 11:22:08;;;;;;;2.65;2.03;;;;;;;28.26;26.58;96453.47;7397610;19;20078;-54
2024/04/15 11:24:35;;;;;;;6.13;2.10;;;;;;;27.98;25.98;96445.84;7397848;19;19998;-53
2024/04/15 11:27:11;;;;;;;7.32;2.20;;;;;;;28.09;25.79;96432.06;7397684;19;19999;-56
2024/04/15 11:29:37;;;;;;;3.17;1.80;;;;;;;27.96;24.66;96442.50;7397062;19;19995;-52